sensor_id;sensor_type;location;lat;lon;timestamp;pressure;altitude;pressure_sealevel;temperature;humidity
61571;BME280;47463;49.884;10.010;2023-02-15T00:00:01;103590.00000000001;;;0.1;99
61571;BME280;47463;49.884;10.010;2023-02-15T00:05:01;103590.00000000001;;;0.1;99
61571;BME280;47463;49.884;10.010;2023-02-15T00:10:01;103590.00000000001;;;0.1;99
61571;BME280;47463;49.884;10.010;2023-02-15T00:15:01;103580;;;0.1;99
61571;BME280;47463;49.884;10.010;2023-02-15T00:20:01;103580;;;0.1;99
61571;BME280;47463;49.884;10.010;2023-02-15T00:25:01;103590.00000000001;;;0.1;99
61571;BME280;47463;49.884;10.010;2023-02-15T00:30:01;103590.00000000001;;;0.1;99
61571;BME280;47463;49.884;10.010;2023-02-15T00:35:01;103590.00000000001;;;0.1;99
61571;BME280;47463;49.884;10.010;2023-02-15T00:40:01;103580;;;0.1;99
61571;BME280;47463;49.884;10.010;2023-02-15T00:45:01;103580;;;0.1;99
61571;BME280;47463;49.884;10.010;2023-02-15T00:50:01;103570;;;0.1;99
61571;BME280;47463;49.884;10.010;2023-02-15T00:55:01;103580;;;0.1;99
61571;BME280;47463;49.884;10.010;2023-02-15T01:00:01;103580;;;0.1;99
61571;BME280;47463;49.884;10.010;2023-02-15T01:05:01;103580;;;0.1;99
61571;BME280;47463;49.884;10.010;2023-02-15T01:10:01;103580;;;0.1;99
61571;BME280;47463;49.884;10.010;2023-02-15T01:15:01;103570;;;0.1;99
61571;BME280;47463;49.884;10.010;2023-02-15T01:20:01;103559.99999999999;;;0.1;99
61571;BME280;47463;49.884;10.010;2023-02-15T01:25:01;103559.99999999999;;;0.1;99
61571;BME280;47463;49.884;10.010;2023-02-15T01:30:01;103559.99999999999;;;0.1;99
61571;BME280;47463;49.884;10.010;2023-02-15T01:35:01;103559.99999999999;;;0.1;99
61571;BME280;47463;49.884;10.010;2023-02-15T01:40:01;103559.99999999999;;;0.1;99
61571;BME280;47463;49.884;10.010;2023-02-15T01:45:01;103550;;;-0.1;99
61571;BME280;47463;49.884;10.010;2023-02-15T01:50:03;103550;;;-0.1;99
61571;BME280;47463;49.884;10.010;2023-02-15T01:55:01;103530;;;-0.1;99
61571;BME280;47463;49.884;10.010;2023-02-15T02:00:01;103530;;;-0.1;99
61571;BME280;47463;49.884;10.010;2023-02-15T02:05:01;103520;;;-0.1;99
61571;BME280;47463;49.884;10.010;2023-02-15T02:10:01;103520;;;-0.1;99
61571;BME280;47463;49.884;10.010;2023-02-15T02:15:01;103530;;;-0.1;99
61571;BME280;47463;49.884;10.010;2023-02-15T02:20:07;103520;;;-0.1;99
61571;BME280;47463;49.884;10.010;2023-02-15T02:25:05;103520;;;-0.1;99
61571;BME280;47463;49.884;10.010;2023-02-15T02:30:06;103509.99999999999;;;-0.1;99
61571;BME280;47463;49.884;10.010;2023-02-15T02:35:01;103509.99999999999;;;-0.1;99
61571;BME280;47463;49.884;10.010;2023-02-15T02:40:03;103509.99999999999;;;-0.1;99
61571;BME280;47463;49.884;10.010;2023-02-15T02:45:02;103509.99999999999;;;-0.2;99
61571;BME280;47463;49.884;10.010;2023-02-15T02:50:02;103509.99999999999;;;-0.2;99
61571;BME280;47463;49.884;10.010;2023-02-15T02:55:01;103509.99999999999;;;-0.2;99
61571;BME280;47463;49.884;10.010;2023-02-15T03:00:02;103509.99999999999;;;-0.2;99
61571;BME280;47463;49.884;10.010;2023-02-15T03:05:01;103500;;;-0.2;99
61571;BME280;47463;49.884;10.010;2023-02-15T03:10:02;103509.99999999999;;;-0.2;99
61571;BME280;47463;49.884;10.010;2023-02-15T03:15:02;103500;;;-0.2;99
61571;BME280;47463;49.884;10.010;2023-02-15T03:20:03;103490.00000000001;;;-0.3;99
61571;BME280;47463;49.884;10.010;2023-02-15T03:25:02;103480;;;-0.3;99
61571;BME280;47463;49.884;10.010;2023-02-15T03:30:01;103480;;;-0.3;99
61571;BME280;47463;49.884;10.010;2023-02-15T03:35:01;103480;;;-0.2;99
61571;BME280;47463;49.884;10.010;2023-02-15T03:40:02;103480;;;-0.2;99
61571;BME280;47463;49.884;10.010;2023-02-15T03:45:02;103480;;;-0.3;99
61571;BME280;47463;49.884;10.010;2023-02-15T03:50:01;103470;;;-0.4;99
61571;BME280;47463;49.884;10.010;2023-02-15T03:55:01;103480;;;-0.4;99
61571;BME280;47463;49.884;10.010;2023-02-15T04:00:02;103459.99999999999;;;-0.5;99
61571;BME280;47463;49.884;10.010;2023-02-15T04:05:01;103470;;;-0.6;99
61571;BME280;47463;49.884;10.010;2023-02-15T04:10:01;103470;;;-0.7;99
61571;BME280;47463;49.884;10.010;2023-02-15T04:15:01;103470;;;-0.6;99
61571;BME280;47463;49.884;10.010;2023-02-15T04:20:01;103470;;;-0.7;99
61571;BME280;47463;49.884;10.010;2023-02-15T04:25:01;103459.99999999999;;;-0.7;99
61571;BME280;47463;49.884;10.010;2023-02-15T04:30:01;103470;;;-0.8;99
61571;BME280;47463;49.884;10.010;2023-02-15T04:35:01;103459.99999999999;;;-0.9;99
61571;BME280;47463;49.884;10.010;2023-02-15T04:40:01;103450;;;-0.9;99
61571;BME280;47463;49.884;10.010;2023-02-15T04:45:01;103450;;;-0.9;99
61571;BME280;47463;49.884;10.010;2023-02-15T04:50:01;103440.00000000001;;;-0.9;99
61571;BME280;47463;49.884;10.010;2023-02-15T04:55:01;103440.00000000001;;;-1;99
61571;BME280;47463;49.884;10.010;2023-02-15T05:00:01;103450;;;-1.1;99
61571;BME280;47463;49.884;10.010;2023-02-15T05:05:01;103459.99999999999;;;-1;99
61571;BME280;47463;49.884;10.010;2023-02-15T05:10:01;103459.99999999999;;;-1;99
61571;BME280;47463;49.884;10.010;2023-02-15T05:15:01;103450;;;-1;99
61571;BME280;47463;49.884;10.010;2023-02-15T05:20:01;103450;;;-1;99
61571;BME280;47463;49.884;10.010;2023-02-15T05:25:01;103459.99999999999;;;-1.1;99
61571;BME280;47463;49.884;10.010;2023-02-15T05:30:01;103440.00000000001;;;-1;99
61571;BME280;47463;49.884;10.010;2023-02-15T05:35:01;103450;;;-1;99
61571;BME280;47463;49.884;10.010;2023-02-15T05:40:01;103450;;;-1;99
61571;BME280;47463;49.884;10.010;2023-02-15T05:45:01;103459.99999999999;;;-1.1;99
61571;BME280;47463;49.884;10.010;2023-02-15T05:50:01;103459.99999999999;;;-1;99
61571;BME280;47463;49.884;10.010;2023-02-15T05:55:01;103459.99999999999;;;-1;99
61571;BME280;47463;49.884;10.010;2023-02-15T06:00:01;103459.99999999999;;;-1.1;99
61571;BME280;47463;49.884;10.010;2023-02-15T06:05:01;103450;;;-1;99
61571;BME280;47463;49.884;10.010;2023-02-15T06:10:01;103450;;;-1;99
61571;BME280;47463;49.884;10.010;2023-02-15T06:15:01;103459.99999999999;;;-0.9;99
61571;BME280;47463;49.884;10.010;2023-02-15T06:20:01;103459.99999999999;;;-1;99
61571;BME280;47463;49.884;10.010;2023-02-15T06:25:01;103459.99999999999;;;-1;99
61571;BME280;47463;49.884;10.010;2023-02-15T06:30:01;103470;;;-1.1;99
61571;BME280;47463;49.884;10.010;2023-02-15T06:35:01;103470;;;-1.1;99
61571;BME280;47463;49.884;10.010;2023-02-15T06:40:01;103459.99999999999;;;-1.1;99
61571;BME280;47463;49.884;10.010;2023-02-15T06:45:01;103470;;;-1.2;99
61571;BME280;47463;49.884;10.010;2023-02-15T06:50:01;103470;;;-1.1;99
61571;BME280;47463;49.884;10.010;2023-02-15T06:55:01;103480;;;-1;99
61571;BME280;47463;49.884;10.010;2023-02-15T07:00:01;103480;;;-1;99
61571;BME280;47463;49.884;10.010;2023-02-15T07:05:01;103480;;;-1;99
61571;BME280;47463;49.884;10.010;2023-02-15T07:10:01;103480;;;-1.1;99
61571;BME280;47463;49.884;10.010;2023-02-15T07:15:01;103470;;;-1.3;99
61571;BME280;47463;49.884;10.010;2023-02-15T07:20:01;103470;;;-1.3;99
61571;BME280;47463;49.884;10.010;2023-02-15T07:25:01;103459.99999999999;;;-1.2;99
61571;BME280;47463;49.884;10.010;2023-02-15T07:30:01;103459.99999999999;;;-1.2;99
61571;BME280;47463;49.884;10.010;2023-02-15T07:35:01;103459.99999999999;;;-1.5;99
61571;BME280;47463;49.884;10.010;2023-02-15T07:40:01;103470;;;-1.4;99
61571;BME280;47463;49.884;10.010;2023-02-15T07:45:01;103480;;;-1.5;99
61571;BME280;47463;49.884;10.010;2023-02-15T07:50:01;103480;;;-1.5;99
61571;BME280;47463;49.884;10.010;2023-02-15T07:55:01;103490.00000000001;;;-1.6;99
61571;BME280;47463;49.884;10.010;2023-02-15T08:00:01;103480;;;-1.5;99
61571;BME280;47463;49.884;10.010;2023-02-15T08:05:01;103490.00000000001;;;-1.6;99
61571;BME280;47463;49.884;10.010;2023-02-15T08:10:01;103480;;;-1.8;99
61571;BME280;47463;49.884;10.010;2023-02-15T08:15:01;103490.00000000001;;;-1.7;99
61571;BME280;47463;49.884;10.010;2023-02-15T08:20:01;103480;;;-1.6;99
61571;BME280;47463;49.884;10.010;2023-02-15T08:25:01;103470;;;-1.8;99
61571;BME280;47463;49.884;10.010;2023-02-15T08:30:01;103470;;;-1.8;99
61571;BME280;47463;49.884;10.010;2023-02-15T08:35:01;103480;;;-1.7;99
61571;BME280;47463;49.884;10.010;2023-02-15T08:40:01;103470;;;-1.8;99
61571;BME280;47463;49.884;10.010;2023-02-15T08:45:01;103470;;;-1.8;99
61571;BME280;47463;49.884;10.010;2023-02-15T08:50:01;103470;;;-1.8;99
61571;BME280;47463;49.884;10.010;2023-02-15T08:55:01;103470;;;-1.6;99
61571;BME280;47463;49.884;10.010;2023-02-15T09:00:01;103470;;;-1.8;99
61571;BME280;47463;49.884;10.010;2023-02-15T09:05:01;103459.99999999999;;;-1.8;99
61571;BME280;47463;49.884;10.010;2023-02-15T09:10:01;103450;;;-1.7;99
61571;BME280;47463;49.884;10.010;2023-02-15T09:15:01;103459.99999999999;;;-1.6;99
61571;BME280;47463;49.884;10.010;2023-02-15T09:20:01;103470;;;-1.8;99
61571;BME280;47463;49.884;10.010;2023-02-15T09:25:01;103470;;;-1.7;99
61571;BME280;47463;49.884;10.010;2023-02-15T09:30:01;103470;;;-1.7;99
61571;BME280;47463;49.884;10.010;2023-02-15T09:35:01;103459.99999999999;;;-1.5;99
61571;BME280;47463;49.884;10.010;2023-02-15T09:40:01;103450;;;-1.6;99
61571;BME280;47463;49.884;10.010;2023-02-15T09:45:06;103459.99999999999;;;-1.5;99
61571;BME280;47463;49.884;10.010;2023-02-15T09:50:02;103459.99999999999;;;-1.3;99
61571;BME280;47463;49.884;10.010;2023-02-15T09:55:05;103450;;;-1.2;99
61571;BME280;47463;49.884;10.010;2023-02-15T10:00:02;103440.00000000001;;;-1.2;99
61571;BME280;47463;49.884;10.010;2023-02-15T10:05:05;103450;;;-1.2;99
61571;BME280;47463;49.884;10.010;2023-02-15T10:10:03;103440.00000000001;;;-1.1;99
61571;BME280;47463;49.884;10.010;2023-02-15T10:15:06;103440.00000000001;;;-1.2;99
61571;BME280;47463;49.884;10.010;2023-02-15T10:20:04;103450;;;-1.4;99
61571;BME280;47463;49.884;10.010;2023-02-15T10:25:05;103430;;;-1.5;99
61571;BME280;47463;49.884;10.010;2023-02-15T10:30:02;103430;;;-1.5;99
61571;BME280;47463;49.884;10.010;2023-02-15T10:35:01;103420;;;-1.4;99
61571;BME280;47463;49.884;10.010;2023-02-15T10:40:02;103420;;;-1.3;99
61571;BME280;47463;49.884;10.010;2023-02-15T10:45:06;103430;;;-1.2;99
61571;BME280;47463;49.884;10.010;2023-02-15T10:50:06;103430;;;-1.1;99
61571;BME280;47463;49.884;10.010;2023-02-15T10:55:02;103409.99999999999;;;-1;99
61571;BME280;47463;49.884;10.010;2023-02-15T11:00:04;103409.99999999999;;;-1;99
61571;BME280;47463;49.884;10.010;2023-02-15T11:05:02;103420;;;-1;99
61571;BME280;47463;49.884;10.010;2023-02-15T11:10:01;103409.99999999999;;;-0.9;99
61571;BME280;47463;49.884;10.010;2023-02-15T11:15:02;103420;;;-1.2;99
61571;BME280;47463;49.884;10.010;2023-02-15T11:20:03;103420;;;-1.1;99
61571;BME280;47463;49.884;10.010;2023-02-15T11:25:01;103409.99999999999;;;-1;99
61571;BME280;47463;49.884;10.010;2023-02-15T11:30:01;103409.99999999999;;;-0.9;99
61571;BME280;47463;49.884;10.010;2023-02-15T11:35:02;103409.99999999999;;;-0.8;99
61571;BME280;47463;49.884;10.010;2023-02-15T11:40:01;103409.99999999999;;;-0.9;99
61571;BME280;47463;49.884;10.010;2023-02-15T11:45:02;103409.99999999999;;;-0.9;99
61571;BME280;47463;49.884;10.010;2023-02-15T11:50:01;103400;;;-0.8;99
61571;BME280;47463;49.884;10.010;2023-02-15T11:55:01;103400;;;-0.9;99
61571;BME280;47463;49.884;10.010;2023-02-15T12:00:02;103380;;;-1;99
61571;BME280;47463;49.884;10.010;2023-02-15T12:05:01;103380;;;-0.9;99
61571;BME280;47463;49.884;10.010;2023-02-15T12:10:02;103380;;;-0.9;99
61571;BME280;47463;49.884;10.010;2023-02-15T12:15:01;103380;;;-0.9;99
61571;BME280;47463;49.884;10.010;2023-02-15T12:20:02;103380;;;-0.8;99
61571;BME280;47463;49.884;10.010;2023-02-15T12:25:02;103390.00000000001;;;-0.8;99
61571;BME280;47463;49.884;10.010;2023-02-15T12:30:01;103380;;;-0.7;99
61571;BME280;47463;49.884;10.010;2023-02-15T12:35:01;103370;;;-0.6;99
61571;BME280;47463;49.884;10.010;2023-02-15T12:40:02;103370;;;-0.5;99
61571;BME280;47463;49.884;10.010;2023-02-15T12:45:01;103370;;;-0.4;99
61571;BME280;47463;49.884;10.010;2023-02-15T12:50:05;103359.99999999999;;;-0.6;99
61571;BME280;47463;49.884;10.010;2023-02-15T12:55:10;103359.99999999999;;;-0.5;99
61571;BME280;47463;49.884;10.010;2023-02-15T13:00:02;103350;;;-0.7;99
61571;BME280;47463;49.884;10.010;2023-02-15T13:05:04;103350;;;-0.7;99
61571;BME280;47463;49.884;10.010;2023-02-15T13:10:01;103340.00000000001;;;-0.7;99
61571;BME280;47463;49.884;10.010;2023-02-15T13:15:01;103330;;;-0.5;99
61571;BME280;47463;49.884;10.010;2023-02-15T13:20:02;103330;;;-0.5;99
61571;BME280;47463;49.884;10.010;2023-02-15T13:25:02;103320;;;-0.4;99
61571;BME280;47463;49.884;10.010;2023-02-15T13:30:02;103320;;;-0.3;99
61571;BME280;47463;49.884;10.010;2023-02-15T13:35:01;103320;;;-0.3;99
61571;BME280;47463;49.884;10.010;2023-02-15T13:40:01;103290.00000000001;;;-0.2;99
61571;BME280;47463;49.884;10.010;2023-02-15T13:45:04;103290.00000000001;;;-0.2;99
61571;BME280;47463;49.884;10.010;2023-02-15T13:50:04;103290.00000000001;;;-0.2;99
61571;BME280;47463;49.884;10.010;2023-02-15T13:55:09;103290.00000000001;;;-0.2;99
61571;BME280;47463;49.884;10.010;2023-02-15T14:00:02;103280;;;-0.1;99
61571;BME280;47463;49.884;10.010;2023-02-15T14:05:06;103280;;;-0.1;99
61571;BME280;47463;49.884;10.010;2023-02-15T14:10:03;103280;;;-0.1;99
61571;BME280;47463;49.884;10.010;2023-02-15T14:15:09;103280;;;-0.1;99
61571;BME280;47463;49.884;10.010;2023-02-15T14:20:01;103250;;;-0.1;99
61571;BME280;47463;49.884;10.010;2023-02-15T14:25:05;103250;;;-0.1;99
61571;BME280;47463;49.884;10.010;2023-02-15T14:30:02;103250;;;-0.1;99
61571;BME280;47463;49.884;10.010;2023-02-15T14:35:01;103259.99999999999;;;-0.1;99
61571;BME280;47463;49.884;10.010;2023-02-15T14:40:02;103250;;;-0.1;99
61571;BME280;47463;49.884;10.010;2023-02-15T14:45:01;103259.99999999999;;;0.1;99
61571;BME280;47463;49.884;10.010;2023-02-15T14:50:17;103259.99999999999;;;0.1;99
61571;BME280;47463;49.884;10.010;2023-02-15T14:55:01;103259.99999999999;;;-0.1;99
61571;BME280;47463;49.884;10.010;2023-02-15T15:00:02;103250;;;-0.1;99
61571;BME280;47463;49.884;10.010;2023-02-15T15:05:02;103250;;;-0.1;99
61571;BME280;47463;49.884;10.010;2023-02-15T15:10:03;103250;;;-0.1;99
61571;BME280;47463;49.884;10.010;2023-02-15T15:15:01;103259.99999999999;;;-0.2;99
61571;BME280;47463;49.884;10.010;2023-02-15T15:20:02;103259.99999999999;;;-0.2;99
61571;BME280;47463;49.884;10.010;2023-02-15T15:25:01;103250;;;-0.2;99
61571;BME280;47463;49.884;10.010;2023-02-15T15:30:01;103259.99999999999;;;-0.2;99
61571;BME280;47463;49.884;10.010;2023-02-15T15:35:04;103250;;;-0.1;99
61571;BME280;47463;49.884;10.010;2023-02-15T15:40:12;103240.00000000001;;;-0.1;99
61571;BME280;47463;49.884;10.010;2023-02-15T15:45:14;103250;;;-0.1;99
61571;BME280;47463;49.884;10.010;2023-02-15T15:50:01;103240.00000000001;;;-0.1;99
61571;BME280;47463;49.884;10.010;2023-02-15T15:55:03;103230;;;-0.1;99
61571;BME280;47463;49.884;10.010;2023-02-15T16:00:01;103220;;;-0.1;99
61571;BME280;47463;49.884;10.010;2023-02-15T16:05:08;103230;;;-0.1;99
61571;BME280;47463;49.884;10.010;2023-02-15T16:10:02;103209.99999999999;;;-0.1;99
61571;BME280;47463;49.884;10.010;2023-02-15T16:15:01;103209.99999999999;;;-0.1;99
61571;BME280;47463;49.884;10.010;2023-02-15T16:20:02;103220;;;-0.1;99
61571;BME280;47463;49.884;10.010;2023-02-15T16:25:05;103230;;;-0.2;99
61571;BME280;47463;49.884;10.010;2023-02-15T16:30:17;103240.00000000001;;;-0.2;99
61571;BME280;47463;49.884;10.010;2023-02-15T16:35:01;103240.00000000001;;;-0.2;99
61571;BME280;47463;49.884;10.010;2023-02-15T16:40:01;103240.00000000001;;;-0.2;99
61571;BME280;47463;49.884;10.010;2023-02-15T16:45:01;103230;;;-0.2;99
61571;BME280;47463;49.884;10.010;2023-02-15T16:50:01;103230;;;-0.2;99
61571;BME280;47463;49.884;10.010;2023-02-15T16:55:02;103230;;;-0.3;99
61571;BME280;47463;49.884;10.010;2023-02-15T17:00:02;103230;;;-0.3;99
61571;BME280;47463;49.884;10.010;2023-02-15T17:05:04;103230;;;-0.3;99
61571;BME280;47463;49.884;10.010;2023-02-15T17:10:01;103230;;;-0.3;99
61571;BME280;47463;49.884;10.010;2023-02-15T17:15:01;103220;;;-0.2;99
61571;BME280;47463;49.884;10.010;2023-02-15T17:20:01;103230;;;-0.2;99
61571;BME280;47463;49.884;10.010;2023-02-15T17:25:03;103230;;;-0.2;99
61571;BME280;47463;49.884;10.010;2023-02-15T17:30:02;103230;;;-0.1;99
61571;BME280;47463;49.884;10.010;2023-02-15T17:35:14;103230;;;-0.1;99
61571;BME280;47463;49.884;10.010;2023-02-15T17:40:01;103230;;;-0.1;99
61571;BME280;47463;49.884;10.010;2023-02-15T17:45:01;103230;;;-0.1;99
61571;BME280;47463;49.884;10.010;2023-02-15T17:50:01;103230;;;-0.1;99
61571;BME280;47463;49.884;10.010;2023-02-15T17:55:01;103240.00000000001;;;-0.1;99
61571;BME280;47463;49.884;10.010;2023-02-15T18:00:01;103250;;;0.1;99
61571;BME280;47463;49.884;10.010;2023-02-15T18:05:01;103250;;;0.1;99
61571;BME280;47463;49.884;10.010;2023-02-15T18:10:01;103240.00000000001;;;0.1;99
61571;BME280;47463;49.884;10.010;2023-02-15T18:15:01;103250;;;0.1;99
61571;BME280;47463;49.884;10.010;2023-02-15T18:20:01;103250;;;0.1;99
61571;BME280;47463;49.884;10.010;2023-02-15T18:25:01;103240.00000000001;;;0.1;99
61571;BME280;47463;49.884;10.010;2023-02-15T18:30:01;103250;;;0.1;99
61571;BME280;47463;49.884;10.010;2023-02-15T18:35:01;103250;;;0.1;99
61571;BME280;47463;49.884;10.010;2023-02-15T18:40:01;103250;;;0.1;99
61571;BME280;47463;49.884;10.010;2023-02-15T18:45:03;103250;;;0.1;99
61571;BME280;47463;49.884;10.010;2023-02-15T18:50:01;103240.00000000001;;;0.1;99
61571;BME280;47463;49.884;10.010;2023-02-15T18:55:02;103240.00000000001;;;0.1;99
61571;BME280;47463;49.884;10.010;2023-02-15T19:00:01;103240.00000000001;;;0.1;99
61571;BME280;47463;49.884;10.010;2023-02-15T19:05:01;103230;;;0.1;99
61571;BME280;47463;49.884;10.010;2023-02-15T19:10:01;103230;;;0.1;99
61571;BME280;47463;49.884;10.010;2023-02-15T19:15:01;103220;;;0.1;99
61571;BME280;47463;49.884;10.010;2023-02-15T19:20:01;103230;;;0.1;99
61571;BME280;47463;49.884;10.010;2023-02-15T19:25:01;103230;;;0.1;99
61571;BME280;47463;49.884;10.010;2023-02-15T19:30:02;103230;;;0.1;99
61571;BME280;47463;49.884;10.010;2023-02-15T19:35:01;103240.00000000001;;;0.1;99
61571;BME280;47463;49.884;10.010;2023-02-15T19:40:01;103230;;;0.1;99
61571;BME280;47463;49.884;10.010;2023-02-15T19:45:01;103220;;;0.1;99
61571;BME280;47463;49.884;10.010;2023-02-15T19:50:01;103220;;;0.1;99
61571;BME280;47463;49.884;10.010;2023-02-15T19:55:01;103220;;;0.1;99
61571;BME280;47463;49.884;10.010;2023-02-15T20:00:01;103209.99999999999;;;0.1;99
61571;BME280;47463;49.884;10.010;2023-02-15T20:05:01;103209.99999999999;;;0.1;99
61571;BME280;47463;49.884;10.010;2023-02-15T20:10:01;103200;;;0.1;99
61571;BME280;47463;49.884;10.010;2023-02-15T20:15:01;103200;;;0.1;99
61571;BME280;47463;49.884;10.010;2023-02-15T20:20:01;103200;;;0.1;99
61571;BME280;47463;49.884;10.010;2023-02-15T20:25:01;103200;;;0.1;99
61571;BME280;47463;49.884;10.010;2023-02-15T20:30:01;103200;;;0.1;99
61571;BME280;47463;49.884;10.010;2023-02-15T20:35:01;103200;;;0.1;99
61571;BME280;47463;49.884;10.010;2023-02-15T20:40:01;103200;;;0.1;99
61571;BME280;47463;49.884;10.010;2023-02-15T20:45:01;103200;;;0.1;99
61571;BME280;47463;49.884;10.010;2023-02-15T20:50:01;103200;;;0.1;99
61571;BME280;47463;49.884;10.010;2023-02-15T20:55:01;103200;;;0.1;99
61571;BME280;47463;49.884;10.010;2023-02-15T21:00:01;103200;;;0.1;99
61571;BME280;47463;49.884;10.010;2023-02-15T21:05:01;103200;;;0.1;99
61571;BME280;47463;49.884;10.010;2023-02-15T21:10:01;103209.99999999999;;;0.1;99
61571;BME280;47463;49.884;10.010;2023-02-15T21:15:01;103209.99999999999;;;0.1;99
61571;BME280;47463;49.884;10.010;2023-02-15T21:20:01;103209.99999999999;;;0.1;99
61571;BME280;47463;49.884;10.010;2023-02-15T21:25:01;103209.99999999999;;;0.1;99
61571;BME280;47463;49.884;10.010;2023-02-15T21:30:01;103209.99999999999;;;0.1;99
61571;BME280;47463;49.884;10.010;2023-02-15T21:35:01;103209.99999999999;;;0.1;99
61571;BME280;47463;49.884;10.010;2023-02-15T21:40:01;103209.99999999999;;;-0.1;99
61571;BME280;47463;49.884;10.010;2023-02-15T21:45:01;103220;;;-0.1;99
61571;BME280;47463;49.884;10.010;2023-02-15T21:50:01;103220;;;-0.1;99
61571;BME280;47463;49.884;10.010;2023-02-15T21:55:01;103220;;;-0.1;99
61571;BME280;47463;49.884;10.010;2023-02-15T22:00:01;103209.99999999999;;;-0.1;99
61571;BME280;47463;49.884;10.010;2023-02-15T22:05:01;103200;;;-0.1;99
61571;BME280;47463;49.884;10.010;2023-02-15T22:10:01;103200;;;-0.2;99
61571;BME280;47463;49.884;10.010;2023-02-15T22:15:01;103209.99999999999;;;-0.2;99
61571;BME280;47463;49.884;10.010;2023-02-15T22:20:01;103209.99999999999;;;-0.2;99
61571;BME280;47463;49.884;10.010;2023-02-15T22:25:01;103200;;;-0.2;99
61571;BME280;47463;49.884;10.010;2023-02-15T22:30:01;103209.99999999999;;;-0.3;99
61571;BME280;47463;49.884;10.010;2023-02-15T22:35:01;103209.99999999999;;;-0.3;99
61571;BME280;47463;49.884;10.010;2023-02-15T22:40:01;103209.99999999999;;;-0.3;99
61571;BME280;47463;49.884;10.010;2023-02-15T22:45:01;103209.99999999999;;;-0.3;99
61571;BME280;47463;49.884;10.010;2023-02-15T22:50:01;103220;;;-0.3;99
61571;BME280;47463;49.884;10.010;2023-02-15T22:55:01;103220;;;-0.3;99
61571;BME280;47463;49.884;10.010;2023-02-15T23:00:01;103230;;;-0.3;99
61571;BME280;47463;49.884;10.010;2023-02-15T23:05:01;103220;;;-0.3;99
61571;BME280;47463;49.884;10.010;2023-02-15T23:10:01;103220;;;-0.3;99
61571;BME280;47463;49.884;10.010;2023-02-15T23:15:01;103209.99999999999;;;-0.3;99
61571;BME280;47463;49.884;10.010;2023-02-15T23:20:01;103209.99999999999;;;-0.3;99
61571;BME280;47463;49.884;10.010;2023-02-15T23:25:01;103209.99999999999;;;-0.3;99
61571;BME280;47463;49.884;10.010;2023-02-15T23:30:02;103209.99999999999;;;-0.3;99
61571;BME280;47463;49.884;10.010;2023-02-15T23:35:01;103190.00000000001;;;-0.4;99
61571;BME280;47463;49.884;10.010;2023-02-15T23:40:01;103190.00000000001;;;-0.4;99
61571;BME280;47463;49.884;10.010;2023-02-15T23:45:01;103200;;;-0.5;99
61571;BME280;47463;49.884;10.010;2023-02-15T23:50:01;103190.00000000001;;;-0.4;99
61571;BME280;47463;49.884;10.010;2023-02-15T23:55:01;103190.00000000001;;;-0.4;99
